createdAt,value
2018-10-09T00:00:12.143Z,24.3
2018-10-09T00:10:11.367Z,24.3
2018-10-09T00:20:10.587Z,23.9
2018-10-09T00:30:09.859Z,23.8
2018-10-09T00:40:09.037Z,23.8
2018-10-09T00:50:08.265Z,23.8
2018-10-09T01:00:07.477Z,23.8
2018-10-09T01:10:06.705Z,23.7
2018-10-09T01:20:05.923Z,23.8
2018-10-09T01:30:05.147Z,23.6
2018-10-09T01:40:04.369Z,23.6
2018-10-09T01:50:03.593Z,23.6
2018-10-09T02:00:02.808Z,23.4
2018-10-09T02:10:02.039Z,23.4
2018-10-09T02:20:01.261Z,23.4
2018-10-09T02:30:00.484Z,23.4
2018-10-09T02:39:59.697Z,23.4
2018-10-09T02:49:58.924Z,23.4
2018-10-09T02:59:58.147Z,23.3
2018-10-09T03:09:57.367Z,23.3
2018-10-09T03:19:56.588Z,23.3
2018-10-09T03:29:55.817Z,23.4
2018-10-09T03:39:55.036Z,23.4
2018-10-09T03:49:54.259Z,23.4
2018-10-09T03:59:53.489Z,23.4
2018-10-09T04:09:52.710Z,23.5
2018-10-09T04:19:51.937Z,23.4
2018-10-09T04:29:51.160Z,23.4
2018-10-09T04:39:50.383Z,23.4
2018-10-09T04:49:49.609Z,23.3
2018-10-09T04:59:48.829Z,23.3
2018-10-09T05:09:48.052Z,23.2
2018-10-09T05:19:47.277Z,23.2
2018-10-09T05:29:46.554Z,23.4
2018-10-09T05:39:45.722Z,23.9
2018-10-09T05:49:44.950Z,24.3
2018-10-09T05:59:44.174Z,24.7
2018-10-09T06:09:43.403Z,25.4
2018-10-09T06:19:42.620Z,26
2018-10-09T06:29:41.851Z,26.3
2018-10-09T06:39:41.079Z,26.6
2018-10-09T06:49:40.294Z,26.8
2018-10-09T06:59:39.515Z,27
2018-10-09T07:09:38.743Z,27.2
2018-10-09T07:19:37.967Z,27.4
2018-10-09T07:29:37.194Z,27.6
2018-10-09T07:39:36.420Z,27.7
2018-10-09T07:49:35.647Z,27.9
2018-10-09T07:59:34.875Z,27.9
2018-10-09T08:09:34.102Z,28.1
2018-10-09T08:19:33.358Z,28.3
2018-10-09T08:29:32.561Z,28.3
2018-10-09T08:39:31.790Z,28.4
2018-10-09T08:49:31.009Z,28.4
2018-10-09T08:59:30.240Z,28.4
2018-10-09T09:09:29.472Z,28.4
2018-10-09T09:19:28.691Z,28.4
2018-10-09T09:29:27.920Z,28.3
2018-10-09T09:39:27.144Z,28.3
2018-10-09T09:49:26.376Z,28.3
2018-10-09T09:59:25.708Z,28.1
2018-10-09T10:09:24.861Z,27.9
2018-10-09T10:19:24.050Z,27.6
2018-10-09T10:29:23.276Z,27.3
2018-10-09T10:39:22.500Z,27.1
2018-10-09T10:49:21.755Z,26.9
2018-10-09T10:59:20.950Z,26.7
2018-10-09T11:09:20.175Z,26.4
2018-10-09T11:19:19.404Z,26.3
2018-10-09T11:29:18.633Z,26.1
2018-10-09T11:39:17.848Z,25.9
2018-10-09T11:49:17.076Z,25.8
2018-10-09T11:59:16.296Z,25.7
2018-10-09T12:09:15.520Z,25.5
2018-10-09T12:19:14.748Z,25.6
2018-10-09T12:29:13.968Z,25.6
2018-10-09T12:39:13.201Z,25.9
2018-10-09T12:49:12.417Z,25.9
2018-10-09T12:59:11.703Z,25.8
2018-10-09T13:09:10.866Z,25.7
2018-10-09T13:19:10.089Z,25.3
2018-10-09T13:29:09.315Z,25.1
2018-10-09T13:39:08.542Z,25.3
2018-10-09T13:49:07.759Z,25.3
2018-10-09T13:59:07.028Z,25.4
2018-10-09T14:09:06.204Z,25.5
2018-10-09T14:19:05.428Z,25.3
2018-10-09T14:29:04.654Z,25.3
2018-10-09T14:39:03.885Z,25.3
2018-10-09T14:49:03.100Z,25.3
2018-10-09T14:59:02.328Z,25
2018-10-09T15:09:01.548Z,25
2018-10-09T15:19:00.772Z,25.1
2018-10-09T15:29:00.011Z,24.8
2018-10-09T15:38:59.222Z,25
2018-10-09T15:48:58.456Z,24.8
2018-10-09T15:58:57.679Z,25
2018-10-09T16:08:56.906Z,24.9
2018-10-09T16:18:56.126Z,24.8
2018-10-09T16:28:55.356Z,24.7
2018-10-09T16:38:54.583Z,24.7
2018-10-09T16:48:53.804Z,24.8
2018-10-09T16:58:53.031Z,24.9
2018-10-09T17:08:52.259Z,25
2018-10-09T17:18:51.493Z,25.1
2018-10-09T17:28:50.717Z,25.1
2018-10-09T17:38:49.943Z,24.7
2018-10-09T17:48:49.164Z,24.7
2018-10-09T17:58:48.541Z,24.7
2018-10-09T18:08:47.660Z,24.6
2018-10-09T18:18:46.851Z,24.5
2018-10-09T18:28:46.072Z,24.4
2018-10-09T18:38:45.305Z,24.4
2018-10-09T18:48:44.526Z,24.4
2018-10-09T18:58:43.768Z,24.3
2018-10-09T19:08:42.987Z,24.5
2018-10-09T19:18:42.213Z,24.9
2018-10-09T19:28:41.437Z,25
2018-10-09T19:38:40.663Z,24.8
2018-10-09T19:48:39.889Z,24.6
2018-10-09T19:58:39.110Z,24.4
2018-10-09T20:08:38.334Z,24.5
2018-10-09T20:18:37.563Z,24.3
2018-10-09T20:28:36.784Z,24.4
2018-10-09T20:38:36.014Z,24.3
2018-10-09T20:48:35.235Z,24.3
2018-10-09T20:58:34.461Z,24.3
2018-10-09T21:08:33.687Z,24.1
2018-10-09T21:18:32.910Z,24.1
2018-10-09T21:28:32.144Z,24.2
2018-10-09T21:38:31.357Z,24.1
2018-10-09T21:48:30.583Z,23.9
2018-10-09T21:58:29.811Z,24.1
2018-10-09T22:08:29.028Z,24.1
2018-10-09T22:18:28.255Z,23.9
2018-10-09T22:28:27.471Z,24.4
2018-10-09T22:38:26.703Z,24.3
2018-10-09T22:48:25.919Z,23.9
2018-10-09T22:58:25.151Z,23.8
2018-10-09T23:08:24.374Z,23.8
2018-10-09T23:18:23.594Z,23.8
2018-10-09T23:28:22.817Z,23.8
2018-10-09T23:38:22.041Z,23.8
2018-10-09T23:48:21.261Z,23.8
2018-10-09T23:58:20.483Z,23.7
